sensor_id;sensor_type;location;lat;lon;timestamp;P1;durP1;ratioP1;P2;durP2;ratioP2
23682;SDS011;24897;53.514;10.482;2022-12-08T00:01:26;57.80;;;38.30;;
23682;SDS011;24897;53.514;10.482;2022-12-08T00:04:11;72.57;;;42.23;;
23682;SDS011;24897;53.514;10.482;2022-12-08T00:06:55;71.50;;;42.67;;
23682;SDS011;24897;53.514;10.482;2022-12-08T00:09:59;106.30;;;50.03;;
23682;SDS011;24897;53.514;10.482;2022-12-08T00:12:43;94.03;;;46.00;;
23682;SDS011;24897;53.514;10.482;2022-12-08T00:15:27;68.53;;;42.40;;
23682;SDS011;24897;53.514;10.482;2022-12-08T00:18:11;67.83;;;41.67;;
23682;SDS011;24897;53.514;10.482;2022-12-08T00:20:56;110.73;;;48.90;;
23682;SDS011;24897;53.514;10.482;2022-12-08T00:23:41;78.63;;;44.70;;
23682;SDS011;24897;53.514;10.482;2022-12-08T00:26:25;111.97;;;48.43;;
23682;SDS011;24897;53.514;10.482;2022-12-08T00:29:10;100.03;;;47.73;;
23682;SDS011;24897;53.514;10.482;2022-12-08T00:31:55;162.33;;;53.57;;
23682;SDS011;24897;53.514;10.482;2022-12-08T00:34:39;118.33;;;49.83;;
23682;SDS011;24897;53.514;10.482;2022-12-08T00:37:23;139.10;;;50.90;;
23682;SDS011;24897;53.514;10.482;2022-12-08T00:40:07;110.43;;;50.80;;
23682;SDS011;24897;53.514;10.482;2022-12-08T00:42:52;89.23;;;49.87;;
23682;SDS011;24897;53.514;10.482;2022-12-08T00:45:36;118.20;;;52.20;;
23682;SDS011;24897;53.514;10.482;2022-12-08T00:48:20;102.23;;;50.63;;
23682;SDS011;24897;53.514;10.482;2022-12-08T00:51:04;113.93;;;52.23;;
23682;SDS011;24897;53.514;10.482;2022-12-08T00:53:48;110.87;;;52.10;;
23682;SDS011;24897;53.514;10.482;2022-12-08T00:56:32;226.90;;;60.03;;
23682;SDS011;24897;53.514;10.482;2022-12-08T00:59:17;115.93;;;52.47;;
23682;SDS011;24897;53.514;10.482;2022-12-08T01:02:01;133.10;;;52.50;;
23682;SDS011;24897;53.514;10.482;2022-12-08T01:04:45;102.63;;;49.40;;
23682;SDS011;24897;53.514;10.482;2022-12-08T01:07:30;120.30;;;51.63;;
23682;SDS011;24897;53.514;10.482;2022-12-08T01:10:14;96.33;;;47.40;;
23682;SDS011;24897;53.514;10.482;2022-12-08T01:12:59;118.30;;;49.43;;
23682;SDS011;24897;53.514;10.482;2022-12-08T01:15:43;68.20;;;42.60;;
23682;SDS011;24897;53.514;10.482;2022-12-08T01:18:27;107.87;;;46.20;;
23682;SDS011;24897;53.514;10.482;2022-12-08T01:21:12;94.97;;;46.80;;
23682;SDS011;24897;53.514;10.482;2022-12-08T01:23:57;133.30;;;50.93;;
23682;SDS011;24897;53.514;10.482;2022-12-08T01:26:43;92.30;;;48.00;;
23682;SDS011;24897;53.514;10.482;2022-12-08T01:29:27;119.40;;;50.90;;
23682;SDS011;24897;53.514;10.482;2022-12-08T01:32:11;112.17;;;49.10;;
23682;SDS011;24897;53.514;10.482;2022-12-08T01:34:56;140.30;;;54.00;;
23682;SDS011;24897;53.514;10.482;2022-12-08T01:37:40;90.23;;;47.87;;
23682;SDS011;24897;53.514;10.482;2022-12-08T01:40:24;163.57;;;55.90;;
23682;SDS011;24897;53.514;10.482;2022-12-08T01:43:13;96.07;;;49.30;;
23682;SDS011;24897;53.514;10.482;2022-12-08T01:45:59;120.10;;;52.83;;
23682;SDS011;24897;53.514;10.482;2022-12-08T01:48:44;95.13;;;49.83;;
23682;SDS011;24897;53.514;10.482;2022-12-08T01:51:30;93.87;;;50.13;;
23682;SDS011;24897;53.514;10.482;2022-12-08T01:54:17;123.23;;;55.97;;
23682;SDS011;24897;53.514;10.482;2022-12-08T01:57:05;107.00;;;55.47;;
23682;SDS011;24897;53.514;10.482;2022-12-08T01:59:58;118.53;;;54.50;;
23682;SDS011;24897;53.514;10.482;2022-12-08T02:05:49;120.50;;;54.73;;
23682;SDS011;24897;53.514;10.482;2022-12-08T02:08:35;125.27;;;55.93;;
23682;SDS011;24897;53.514;10.482;2022-12-08T02:11:22;128.27;;;56.33;;
23682;SDS011;24897;53.514;10.482;2022-12-08T02:14:07;110.40;;;57.80;;
23682;SDS011;24897;53.514;10.482;2022-12-08T02:38:46;151.17;;;109.73;;
23682;SDS011;24897;53.514;10.482;2022-12-08T02:41:52;108.47;;;55.60;;
23682;SDS011;24897;53.514;10.482;2022-12-08T02:44:52;114.10;;;53.87;;
23682;SDS011;24897;53.514;10.482;2022-12-08T02:47:42;106.17;;;52.60;;
23682;SDS011;24897;53.514;10.482;2022-12-08T02:50:27;113.33;;;52.83;;
23682;SDS011;24897;53.514;10.482;2022-12-08T02:53:11;85.23;;;48.47;;
23682;SDS011;24897;53.514;10.482;2022-12-08T02:56:16;92.43;;;53.20;;
23682;SDS011;24897;53.514;10.482;2022-12-08T02:59:18;103.37;;;51.60;;
23682;SDS011;24897;53.514;10.482;2022-12-08T03:08:14;93.27;;;50.57;;
23682;SDS011;24897;53.514;10.482;2022-12-08T03:11:09;114.57;;;54.20;;
23682;SDS011;24897;53.514;10.482;2022-12-08T03:13:59;130.03;;;56.33;;
23682;SDS011;24897;53.514;10.482;2022-12-08T03:16:47;113.40;;;52.90;;
23682;SDS011;24897;53.514;10.482;2022-12-08T03:19:35;108.77;;;54.83;;
23682;SDS011;24897;53.514;10.482;2022-12-08T03:22:24;99.20;;;51.23;;
23682;SDS011;24897;53.514;10.482;2022-12-08T03:25:12;104.07;;;53.37;;
23682;SDS011;24897;53.514;10.482;2022-12-08T03:27:58;113.77;;;56.73;;
23682;SDS011;24897;53.514;10.482;2022-12-08T03:30:43;94.90;;;49.77;;
23682;SDS011;24897;53.514;10.482;2022-12-08T03:33:32;104.37;;;53.73;;
23682;SDS011;24897;53.514;10.482;2022-12-08T03:36:20;101.80;;;53.90;;
23682;SDS011;24897;53.514;10.482;2022-12-08T03:39:05;118.83;;;56.47;;
23682;SDS011;24897;53.514;10.482;2022-12-08T03:41:49;124.27;;;57.57;;
23682;SDS011;24897;53.514;10.482;2022-12-08T03:44:34;156.33;;;63.50;;
23682;SDS011;24897;53.514;10.482;2022-12-08T03:47:18;142.57;;;63.33;;
23682;SDS011;24897;53.514;10.482;2022-12-08T03:50:03;139.27;;;60.43;;
23682;SDS011;24897;53.514;10.482;2022-12-08T03:52:48;105.00;;;55.90;;
23682;SDS011;24897;53.514;10.482;2022-12-08T03:55:32;96.43;;;53.03;;
23682;SDS011;24897;53.514;10.482;2022-12-08T03:58:17;94.30;;;52.43;;
23682;SDS011;24897;53.514;10.482;2022-12-08T04:01:01;95.93;;;52.53;;
23682;SDS011;24897;53.514;10.482;2022-12-08T04:03:45;97.87;;;52.37;;
23682;SDS011;24897;53.514;10.482;2022-12-08T04:06:29;88.37;;;50.20;;
23682;SDS011;24897;53.514;10.482;2022-12-08T04:09:14;78.20;;;48.03;;
23682;SDS011;24897;53.514;10.482;2022-12-08T04:11:58;76.37;;;45.83;;
23682;SDS011;24897;53.514;10.482;2022-12-08T04:14:42;78.20;;;45.67;;
23682;SDS011;24897;53.514;10.482;2022-12-08T04:17:26;75.83;;;44.50;;
23682;SDS011;24897;53.514;10.482;2022-12-08T04:20:10;68.77;;;42.57;;
23682;SDS011;24897;53.514;10.482;2022-12-08T04:22:55;71.57;;;41.53;;
23682;SDS011;24897;53.514;10.482;2022-12-08T04:25:39;73.23;;;41.93;;
23682;SDS011;24897;53.514;10.482;2022-12-08T04:28:23;73.87;;;44.77;;
23682;SDS011;24897;53.514;10.482;2022-12-08T04:31:07;66.63;;;42.93;;
23682;SDS011;24897;53.514;10.482;2022-12-08T04:33:52;70.67;;;42.83;;
23682;SDS011;24897;53.514;10.482;2022-12-08T04:36:36;72.33;;;42.00;;
23682;SDS011;24897;53.514;10.482;2022-12-08T04:39:21;62.10;;;39.70;;
23682;SDS011;24897;53.514;10.482;2022-12-08T04:42:05;65.47;;;40.83;;
23682;SDS011;24897;53.514;10.482;2022-12-08T04:44:49;67.13;;;40.43;;
23682;SDS011;24897;53.514;10.482;2022-12-08T04:47:34;70.43;;;41.87;;
23682;SDS011;24897;53.514;10.482;2022-12-08T04:50:19;65.00;;;40.57;;
23682;SDS011;24897;53.514;10.482;2022-12-08T04:53:03;67.10;;;40.97;;
23682;SDS011;24897;53.514;10.482;2022-12-08T04:55:48;73.17;;;43.97;;
23682;SDS011;24897;53.514;10.482;2022-12-08T04:58:33;67.20;;;41.87;;
23682;SDS011;24897;53.514;10.482;2022-12-08T05:01:17;67.47;;;42.03;;
23682;SDS011;24897;53.514;10.482;2022-12-08T05:04:01;64.63;;;41.17;;
23682;SDS011;24897;53.514;10.482;2022-12-08T05:06:46;63.80;;;39.30;;
23682;SDS011;24897;53.514;10.482;2022-12-08T05:09:30;63.23;;;40.77;;
23682;SDS011;24897;53.514;10.482;2022-12-08T05:12:14;62.47;;;39.27;;
23682;SDS011;24897;53.514;10.482;2022-12-08T05:14:59;55.87;;;38.07;;
23682;SDS011;24897;53.514;10.482;2022-12-08T05:17:43;60.87;;;38.07;;
23682;SDS011;24897;53.514;10.482;2022-12-08T05:20:27;59.27;;;38.63;;
23682;SDS011;24897;53.514;10.482;2022-12-08T05:23:12;53.57;;;37.27;;
23682;SDS011;24897;53.514;10.482;2022-12-08T05:25:56;56.77;;;38.70;;
23682;SDS011;24897;53.514;10.482;2022-12-08T05:28:40;56.33;;;36.23;;
23682;SDS011;24897;53.514;10.482;2022-12-08T05:31:25;51.93;;;35.93;;
23682;SDS011;24897;53.514;10.482;2022-12-08T05:34:10;53.23;;;36.37;;
23682;SDS011;24897;53.514;10.482;2022-12-08T05:36:55;53.17;;;35.40;;
23682;SDS011;24897;53.514;10.482;2022-12-08T05:39:39;55.20;;;36.53;;
23682;SDS011;24897;53.514;10.482;2022-12-08T05:42:23;52.03;;;35.00;;
23682;SDS011;24897;53.514;10.482;2022-12-08T05:45:08;57.17;;;37.70;;
23682;SDS011;24897;53.514;10.482;2022-12-08T05:47:52;54.30;;;37.30;;
23682;SDS011;24897;53.514;10.482;2022-12-08T05:50:36;56.13;;;36.97;;
23682;SDS011;24897;53.514;10.482;2022-12-08T05:53:21;58.90;;;38.13;;
23682;SDS011;24897;53.514;10.482;2022-12-08T05:56:05;56.73;;;38.13;;
23682;SDS011;24897;53.514;10.482;2022-12-08T05:58:50;56.73;;;38.77;;
23682;SDS011;24897;53.514;10.482;2022-12-08T06:01:35;57.63;;;38.37;;
23682;SDS011;24897;53.514;10.482;2022-12-08T06:04:19;61.97;;;39.57;;
23682;SDS011;24897;53.514;10.482;2022-12-08T06:07:04;57.30;;;39.60;;
23682;SDS011;24897;53.514;10.482;2022-12-08T06:09:49;56.93;;;39.13;;
23682;SDS011;24897;53.514;10.482;2022-12-08T06:12:34;59.80;;;41.30;;
23682;SDS011;24897;53.514;10.482;2022-12-08T06:15:18;57.03;;;39.23;;
23682;SDS011;24897;53.514;10.482;2022-12-08T06:18:02;56.03;;;39.43;;
23682;SDS011;24897;53.514;10.482;2022-12-08T06:20:46;59.43;;;39.53;;
23682;SDS011;24897;53.514;10.482;2022-12-08T06:23:30;63.73;;;39.37;;
23682;SDS011;24897;53.514;10.482;2022-12-08T06:26:16;60.80;;;39.77;;
23682;SDS011;24897;53.514;10.482;2022-12-08T06:29:00;63.10;;;40.30;;
23682;SDS011;24897;53.514;10.482;2022-12-08T06:31:45;57.47;;;37.10;;
23682;SDS011;24897;53.514;10.482;2022-12-08T06:34:29;58.47;;;38.23;;
23682;SDS011;24897;53.514;10.482;2022-12-08T06:37:14;54.00;;;37.50;;
23682;SDS011;24897;53.514;10.482;2022-12-08T06:39:59;59.20;;;39.53;;
23682;SDS011;24897;53.514;10.482;2022-12-08T06:42:43;56.80;;;38.00;;
23682;SDS011;24897;53.514;10.482;2022-12-08T06:45:29;57.47;;;38.90;;
23682;SDS011;24897;53.514;10.482;2022-12-08T06:48:13;56.83;;;38.23;;
23682;SDS011;24897;53.514;10.482;2022-12-08T06:51:09;60.67;;;40.47;;
23682;SDS011;24897;53.514;10.482;2022-12-08T06:53:54;63.23;;;43.40;;
23682;SDS011;24897;53.514;10.482;2022-12-08T06:56:39;59.60;;;40.20;;
23682;SDS011;24897;53.514;10.482;2022-12-08T06:59:24;61.80;;;41.03;;
23682;SDS011;24897;53.514;10.482;2022-12-08T07:02:11;58.00;;;39.93;;
23682;SDS011;24897;53.514;10.482;2022-12-08T07:04:55;59.90;;;41.07;;
23682;SDS011;24897;53.514;10.482;2022-12-08T07:07:39;60.43;;;40.53;;
23682;SDS011;24897;53.514;10.482;2022-12-08T07:10:23;62.10;;;42.07;;
23682;SDS011;24897;53.514;10.482;2022-12-08T07:13:07;63.47;;;43.40;;
23682;SDS011;24897;53.514;10.482;2022-12-08T07:15:52;61.70;;;44.53;;
23682;SDS011;24897;53.514;10.482;2022-12-08T07:18:36;61.50;;;41.57;;
23682;SDS011;24897;53.514;10.482;2022-12-08T07:21:21;65.70;;;44.00;;
23682;SDS011;24897;53.514;10.482;2022-12-08T07:24:06;67.93;;;44.23;;
23682;SDS011;24897;53.514;10.482;2022-12-08T07:26:50;65.90;;;43.03;;
23682;SDS011;24897;53.514;10.482;2022-12-08T07:29:34;63.50;;;42.17;;
23682;SDS011;24897;53.514;10.482;2022-12-08T07:32:19;61.03;;;41.23;;
23682;SDS011;24897;53.514;10.482;2022-12-08T07:35:03;59.53;;;40.13;;
23682;SDS011;24897;53.514;10.482;2022-12-08T07:37:48;62.20;;;40.83;;
23682;SDS011;24897;53.514;10.482;2022-12-08T07:40:33;60.90;;;40.70;;
23682;SDS011;24897;53.514;10.482;2022-12-08T07:43:17;54.33;;;40.03;;
23682;SDS011;24897;53.514;10.482;2022-12-08T07:46:02;56.57;;;38.90;;
23682;SDS011;24897;53.514;10.482;2022-12-08T07:48:47;57.10;;;41.13;;
23682;SDS011;24897;53.514;10.482;2022-12-08T07:51:31;61.70;;;41.07;;
23682;SDS011;24897;53.514;10.482;2022-12-08T07:54:16;59.53;;;40.37;;
23682;SDS011;24897;53.514;10.482;2022-12-08T07:57:00;59.37;;;41.00;;
23682;SDS011;24897;53.514;10.482;2022-12-08T07:59:46;55.47;;;38.57;;
23682;SDS011;24897;53.514;10.482;2022-12-08T08:02:30;53.30;;;35.40;;
23682;SDS011;24897;53.514;10.482;2022-12-08T08:05:15;55.30;;;36.53;;
23682;SDS011;24897;53.514;10.482;2022-12-08T08:07:59;56.63;;;38.67;;
23682;SDS011;24897;53.514;10.482;2022-12-08T08:10:43;60.90;;;39.03;;
23682;SDS011;24897;53.514;10.482;2022-12-08T08:13:28;57.60;;;36.83;;
23682;SDS011;24897;53.514;10.482;2022-12-08T08:16:12;56.67;;;37.63;;
23682;SDS011;24897;53.514;10.482;2022-12-08T08:18:56;56.30;;;35.80;;
23682;SDS011;24897;53.514;10.482;2022-12-08T08:21:40;50.17;;;34.93;;
23682;SDS011;24897;53.514;10.482;2022-12-08T08:24:24;58.83;;;37.30;;
23682;SDS011;24897;53.514;10.482;2022-12-08T08:27:09;57.83;;;38.17;;
23682;SDS011;24897;53.514;10.482;2022-12-08T08:29:53;53.17;;;37.90;;
23682;SDS011;24897;53.514;10.482;2022-12-08T08:32:37;61.10;;;39.47;;
23682;SDS011;24897;53.514;10.482;2022-12-08T08:35:22;53.80;;;37.07;;
23682;SDS011;24897;53.514;10.482;2022-12-08T08:38:07;66.40;;;42.13;;
23682;SDS011;24897;53.514;10.482;2022-12-08T08:40:51;62.00;;;40.00;;
23682;SDS011;24897;53.514;10.482;2022-12-08T08:43:35;63.57;;;40.73;;
23682;SDS011;24897;53.514;10.482;2022-12-08T08:46:20;67.30;;;42.73;;
23682;SDS011;24897;53.514;10.482;2022-12-08T08:49:04;61.20;;;39.40;;
23682;SDS011;24897;53.514;10.482;2022-12-08T08:51:49;65.93;;;41.20;;
23682;SDS011;24897;53.514;10.482;2022-12-08T08:54:33;63.67;;;44.27;;
23682;SDS011;24897;53.514;10.482;2022-12-08T08:57:18;67.27;;;42.17;;
23682;SDS011;24897;53.514;10.482;2022-12-08T09:00:03;63.83;;;41.03;;
23682;SDS011;24897;53.514;10.482;2022-12-08T09:02:48;60.97;;;42.10;;
23682;SDS011;24897;53.514;10.482;2022-12-08T09:05:32;61.20;;;41.93;;
23682;SDS011;24897;53.514;10.482;2022-12-08T09:08:17;61.57;;;42.30;;
23682;SDS011;24897;53.514;10.482;2022-12-08T09:11:01;61.13;;;40.50;;
23682;SDS011;24897;53.514;10.482;2022-12-08T09:13:46;68.27;;;48.23;;
23682;SDS011;24897;53.514;10.482;2022-12-08T09:16:32;66.37;;;45.23;;
23682;SDS011;24897;53.514;10.482;2022-12-08T09:19:16;67.47;;;44.60;;
23682;SDS011;24897;53.514;10.482;2022-12-08T09:22:00;61.80;;;43.97;;
23682;SDS011;24897;53.514;10.482;2022-12-08T09:24:44;59.27;;;41.70;;
23682;SDS011;24897;53.514;10.482;2022-12-08T09:27:28;61.53;;;42.13;;
23682;SDS011;24897;53.514;10.482;2022-12-08T09:30:14;62.70;;;45.37;;
23682;SDS011;24897;53.514;10.482;2022-12-08T09:32:58;60.40;;;44.40;;
23682;SDS011;24897;53.514;10.482;2022-12-08T09:35:42;63.43;;;44.07;;
23682;SDS011;24897;53.514;10.482;2022-12-08T09:38:27;62.73;;;43.17;;
23682;SDS011;24897;53.514;10.482;2022-12-08T09:47:32;66.80;;;44.20;;
23682;SDS011;24897;53.514;10.482;2022-12-08T09:56:32;64.07;;;44.30;;
23682;SDS011;24897;53.514;10.482;2022-12-08T10:02:31;64.27;;;44.07;;
23682;SDS011;24897;53.514;10.482;2022-12-08T10:05:14;64.80;;;43.27;;
23682;SDS011;24897;53.514;10.482;2022-12-08T10:08:14;73.33;;;45.40;;
23682;SDS011;24897;53.514;10.482;2022-12-08T10:11:07;69.40;;;44.57;;
23682;SDS011;24897;53.514;10.482;2022-12-08T10:14:00;72.43;;;46.00;;
23682;SDS011;24897;53.514;10.482;2022-12-08T10:17:19;75.17;;;45.13;;
23682;SDS011;24897;53.514;10.482;2022-12-08T10:20:12;73.33;;;44.80;;
23682;SDS011;24897;53.514;10.482;2022-12-08T10:28:56;68.03;;;43.90;;
23682;SDS011;24897;53.514;10.482;2022-12-08T10:31:44;72.27;;;44.87;;
23682;SDS011;24897;53.514;10.482;2022-12-08T10:34:28;62.70;;;42.57;;
23682;SDS011;24897;53.514;10.482;2022-12-08T10:37:13;74.57;;;45.60;;
23682;SDS011;24897;53.514;10.482;2022-12-08T10:40:00;72.93;;;44.87;;
23682;SDS011;24897;53.514;10.482;2022-12-08T10:42:49;66.53;;;43.10;;
23682;SDS011;24897;53.514;10.482;2022-12-08T10:45:36;52.83;;;38.67;;
23682;SDS011;24897;53.514;10.482;2022-12-08T10:48:25;74.83;;;44.70;;
23682;SDS011;24897;53.514;10.482;2022-12-08T10:51:27;52.13;;;38.23;;
23682;SDS011;24897;53.514;10.482;2022-12-08T10:54:23;52.73;;;37.57;;
23682;SDS011;24897;53.514;10.482;2022-12-08T10:57:20;48.37;;;35.57;;
23682;SDS011;24897;53.514;10.482;2022-12-08T11:00:06;56.67;;;40.13;;
23682;SDS011;24897;53.514;10.482;2022-12-08T11:02:58;51.27;;;39.50;;
23682;SDS011;24897;53.514;10.482;2022-12-08T11:05:44;52.60;;;38.57;;
23682;SDS011;24897;53.514;10.482;2022-12-08T11:08:29;45.73;;;35.93;;
23682;SDS011;24897;53.514;10.482;2022-12-08T11:11:14;45.73;;;32.97;;
23682;SDS011;24897;53.514;10.482;2022-12-08T11:13:59;45.97;;;32.70;;
23682;SDS011;24897;53.514;10.482;2022-12-08T11:16:50;46.23;;;33.07;;
23682;SDS011;24897;53.514;10.482;2022-12-08T11:20:01;41.00;;;32.77;;
23682;SDS011;24897;53.514;10.482;2022-12-08T11:22:53;46.33;;;34.83;;
23682;SDS011;24897;53.514;10.482;2022-12-08T11:25:38;45.63;;;34.70;;
23682;SDS011;24897;53.514;10.482;2022-12-08T11:28:23;51.07;;;39.00;;
23682;SDS011;24897;53.514;10.482;2022-12-08T11:31:18;54.93;;;39.23;;
23682;SDS011;24897;53.514;10.482;2022-12-08T11:34:19;51.30;;;37.90;;
23682;SDS011;24897;53.514;10.482;2022-12-08T11:37:25;48.47;;;37.57;;
23682;SDS011;24897;53.514;10.482;2022-12-08T11:49:09;52.30;;;39.90;;
23682;SDS011;24897;53.514;10.482;2022-12-08T11:51:58;58.63;;;43.57;;
23682;SDS011;24897;53.514;10.482;2022-12-08T11:58:15;57.53;;;43.97;;
23682;SDS011;24897;53.514;10.482;2022-12-08T12:01:04;58.17;;;41.60;;
23682;SDS011;24897;53.514;10.482;2022-12-08T12:03:58;56.80;;;40.97;;
23682;SDS011;24897;53.514;10.482;2022-12-08T12:10:09;61.20;;;43.43;;
23682;SDS011;24897;53.514;10.482;2022-12-08T12:13:25;62.83;;;45.37;;
23682;SDS011;24897;53.514;10.482;2022-12-08T12:19:32;59.97;;;44.53;;
23682;SDS011;24897;53.514;10.482;2022-12-08T12:22:19;59.33;;;43.40;;
23682;SDS011;24897;53.514;10.482;2022-12-08T12:25:05;61.53;;;43.77;;
23682;SDS011;24897;53.514;10.482;2022-12-08T12:28:10;62.33;;;44.23;;
23682;SDS011;24897;53.514;10.482;2022-12-08T12:30:57;59.30;;;42.23;;
23682;SDS011;24897;53.514;10.482;2022-12-08T12:33:45;63.00;;;45.60;;
23682;SDS011;24897;53.514;10.482;2022-12-08T12:36:30;68.27;;;45.20;;
23682;SDS011;24897;53.514;10.482;2022-12-08T12:39:16;57.90;;;42.57;;
23682;SDS011;24897;53.514;10.482;2022-12-08T12:42:04;62.80;;;45.00;;
23682;SDS011;24897;53.514;10.482;2022-12-08T12:44:48;76.93;;;49.10;;
23682;SDS011;24897;53.514;10.482;2022-12-08T12:50:44;71.57;;;48.67;;
23682;SDS011;24897;53.514;10.482;2022-12-08T12:59:34;58.70;;;42.40;;
23682;SDS011;24897;53.514;10.482;2022-12-08T13:02:31;64.67;;;44.43;;
23682;SDS011;24897;53.514;10.482;2022-12-08T13:08:20;55.53;;;40.90;;
23682;SDS011;24897;53.514;10.482;2022-12-08T13:11:07;69.70;;;47.63;;
23682;SDS011;24897;53.514;10.482;2022-12-08T13:13:56;55.23;;;39.10;;
23682;SDS011;24897;53.514;10.482;2022-12-08T13:16:44;57.73;;;41.43;;
23682;SDS011;24897;53.514;10.482;2022-12-08T13:19:29;66.50;;;44.73;;
23682;SDS011;24897;53.514;10.482;2022-12-08T13:28:24;64.07;;;46.87;;
23682;SDS011;24897;53.514;10.482;2022-12-08T13:31:34;70.53;;;48.33;;
23682;SDS011;24897;53.514;10.482;2022-12-08T13:34:39;82.40;;;52.47;;
23682;SDS011;24897;53.514;10.482;2022-12-08T13:37:41;71.20;;;48.57;;
23682;SDS011;24897;53.514;10.482;2022-12-08T13:40:30;66.60;;;46.90;;
23682;SDS011;24897;53.514;10.482;2022-12-08T13:43:24;69.43;;;46.57;;
23682;SDS011;24897;53.514;10.482;2022-12-08T13:46:16;67.93;;;46.97;;
23682;SDS011;24897;53.514;10.482;2022-12-08T13:49:15;64.07;;;45.30;;
23682;SDS011;24897;53.514;10.482;2022-12-08T13:52:05;57.73;;;43.50;;
23682;SDS011;24897;53.514;10.482;2022-12-08T13:55:00;58.53;;;42.93;;
23682;SDS011;24897;53.514;10.482;2022-12-08T13:57:49;64.27;;;44.97;;
23682;SDS011;24897;53.514;10.482;2022-12-08T14:00:34;59.03;;;42.63;;
23682;SDS011;24897;53.514;10.482;2022-12-08T14:03:19;59.70;;;43.63;;
23682;SDS011;24897;53.514;10.482;2022-12-08T14:06:03;56.13;;;38.70;;
23682;SDS011;24897;53.514;10.482;2022-12-08T14:08:52;58.23;;;42.00;;
23682;SDS011;24897;53.514;10.482;2022-12-08T14:11:39;58.13;;;41.33;;
23682;SDS011;24897;53.514;10.482;2022-12-08T14:14:27;56.70;;;42.50;;
23682;SDS011;24897;53.514;10.482;2022-12-08T14:17:16;55.33;;;42.40;;
23682;SDS011;24897;53.514;10.482;2022-12-08T14:22:54;58.93;;;41.93;;
23682;SDS011;24897;53.514;10.482;2022-12-08T14:25:39;57.33;;;43.90;;
23682;SDS011;24897;53.514;10.482;2022-12-08T14:28:33;60.13;;;46.03;;
23682;SDS011;24897;53.514;10.482;2022-12-08T14:31:17;58.03;;;44.27;;
23682;SDS011;24897;53.514;10.482;2022-12-08T14:34:01;61.90;;;45.90;;
23682;SDS011;24897;53.514;10.482;2022-12-08T14:36:46;59.90;;;44.17;;
23682;SDS011;24897;53.514;10.482;2022-12-08T14:39:30;58.97;;;43.87;;
23682;SDS011;24897;53.514;10.482;2022-12-08T14:42:25;58.13;;;44.03;;
23682;SDS011;24897;53.514;10.482;2022-12-08T14:45:10;56.20;;;40.67;;
23682;SDS011;24897;53.514;10.482;2022-12-08T14:47:56;54.47;;;38.97;;
23682;SDS011;24897;53.514;10.482;2022-12-08T14:50:41;54.00;;;38.50;;
23682;SDS011;24897;53.514;10.482;2022-12-08T14:53:41;57.10;;;40.33;;
23682;SDS011;24897;53.514;10.482;2022-12-08T14:59:21;53.77;;;39.93;;
23682;SDS011;24897;53.514;10.482;2022-12-08T15:05:26;58.37;;;42.87;;
23682;SDS011;24897;53.514;10.482;2022-12-08T15:08:11;63.37;;;44.40;;
23682;SDS011;24897;53.514;10.482;2022-12-08T15:11:11;60.70;;;44.43;;
23682;SDS011;24897;53.514;10.482;2022-12-08T15:14:23;62.07;;;41.30;;
23682;SDS011;24897;53.514;10.482;2022-12-08T15:26:20;58.73;;;41.10;;
23682;SDS011;24897;53.514;10.482;2022-12-08T15:29:16;59.30;;;41.67;;
23682;SDS011;24897;53.514;10.482;2022-12-08T15:32:04;57.80;;;41.17;;
23682;SDS011;24897;53.514;10.482;2022-12-08T15:34:52;56.87;;;39.23;;
23682;SDS011;24897;53.514;10.482;2022-12-08T15:37:37;55.03;;;38.80;;
23682;SDS011;24897;53.514;10.482;2022-12-08T15:40:21;62.17;;;40.87;;
23682;SDS011;24897;53.514;10.482;2022-12-08T15:43:07;62.03;;;42.10;;
23682;SDS011;24897;53.514;10.482;2022-12-08T15:45:53;64.70;;;43.40;;
23682;SDS011;24897;53.514;10.482;2022-12-08T15:48:39;68.50;;;46.47;;
23682;SDS011;24897;53.514;10.482;2022-12-08T15:51:23;62.67;;;42.27;;
23682;SDS011;24897;53.514;10.482;2022-12-08T15:54:07;72.70;;;49.20;;
23682;SDS011;24897;53.514;10.482;2022-12-08T15:56:52;68.43;;;48.30;;
23682;SDS011;24897;53.514;10.482;2022-12-08T15:59:38;70.47;;;48.83;;
23682;SDS011;24897;53.514;10.482;2022-12-08T16:02:22;66.50;;;46.03;;
23682;SDS011;24897;53.514;10.482;2022-12-08T16:05:06;65.20;;;44.83;;
23682;SDS011;24897;53.514;10.482;2022-12-08T16:07:50;63.87;;;43.17;;
23682;SDS011;24897;53.514;10.482;2022-12-08T16:10:35;61.83;;;44.77;;
23682;SDS011;24897;53.514;10.482;2022-12-08T16:13:20;64.20;;;45.27;;
23682;SDS011;24897;53.514;10.482;2022-12-08T16:16:25;65.30;;;45.13;;
23682;SDS011;24897;53.514;10.482;2022-12-08T16:19:14;67.40;;;45.30;;
23682;SDS011;24897;53.514;10.482;2022-12-08T16:22:01;70.67;;;47.73;;
23682;SDS011;24897;53.514;10.482;2022-12-08T16:24:45;93.37;;;56.97;;
23682;SDS011;24897;53.514;10.482;2022-12-08T16:27:31;72.00;;;49.87;;
23682;SDS011;24897;53.514;10.482;2022-12-08T16:30:17;75.50;;;51.67;;
23682;SDS011;24897;53.514;10.482;2022-12-08T16:33:03;67.90;;;48.00;;
23682;SDS011;24897;53.514;10.482;2022-12-08T16:35:47;62.90;;;45.43;;
23682;SDS011;24897;53.514;10.482;2022-12-08T16:38:31;68.40;;;48.33;;
23682;SDS011;24897;53.514;10.482;2022-12-08T16:41:17;68.40;;;46.53;;
23682;SDS011;24897;53.514;10.482;2022-12-08T16:44:20;62.90;;;42.33;;
23682;SDS011;24897;53.514;10.482;2022-12-08T16:47:08;66.47;;;46.67;;
23682;SDS011;24897;53.514;10.482;2022-12-08T16:49:53;74.53;;;50.63;;
23682;SDS011;24897;53.514;10.482;2022-12-08T16:52:37;72.90;;;49.07;;
23682;SDS011;24897;53.514;10.482;2022-12-08T16:55:21;71.67;;;48.30;;
23682;SDS011;24897;53.514;10.482;2022-12-08T16:58:05;85.40;;;53.97;;
23682;SDS011;24897;53.514;10.482;2022-12-08T17:00:49;74.13;;;49.60;;
23682;SDS011;24897;53.514;10.482;2022-12-08T17:03:33;71.57;;;47.87;;
23682;SDS011;24897;53.514;10.482;2022-12-08T17:06:17;72.87;;;47.83;;
23682;SDS011;24897;53.514;10.482;2022-12-08T17:09:02;71.73;;;46.10;;
23682;SDS011;24897;53.514;10.482;2022-12-08T17:11:46;72.43;;;47.70;;
23682;SDS011;24897;53.514;10.482;2022-12-08T17:14:31;70.80;;;47.27;;
23682;SDS011;24897;53.514;10.482;2022-12-08T17:17:17;64.33;;;42.13;;
23682;SDS011;24897;53.514;10.482;2022-12-08T17:20:02;66.47;;;43.23;;
23682;SDS011;24897;53.514;10.482;2022-12-08T17:22:48;69.90;;;45.33;;
23682;SDS011;24897;53.514;10.482;2022-12-08T17:25:33;67.93;;;44.77;;
23682;SDS011;24897;53.514;10.482;2022-12-08T17:28:17;70.63;;;46.17;;
23682;SDS011;24897;53.514;10.482;2022-12-08T17:31:01;104.57;;;62.10;;
23682;SDS011;24897;53.514;10.482;2022-12-08T17:33:56;75.70;;;51.13;;
23682;SDS011;24897;53.514;10.482;2022-12-08T17:36:44;76.73;;;48.73;;
23682;SDS011;24897;53.514;10.482;2022-12-08T17:39:28;70.13;;;45.43;;
23682;SDS011;24897;53.514;10.482;2022-12-08T17:42:12;65.70;;;44.83;;
23682;SDS011;24897;53.514;10.482;2022-12-08T17:44:56;68.63;;;44.27;;
23682;SDS011;24897;53.514;10.482;2022-12-08T17:47:40;124.13;;;64.57;;